São Filipe Airport

GVSF · São Filipe, Capo Verde

Storia di METAR GVSF · São Filipe Airport

Di seguito sono riportati i METAR degli ultimi giorni. Seleziona un anno per sfogliare i METAR più vecchi, dall'anno 2007 in poi.

22 luglio 2024

Tempo Codice Tempo meteorologico Temp. Vista Base nuvolosa Vento METAR/SPECI
19:00
M
26 °C 9 km 1.800 ft 030° 030° 10 kt METAR GVNP 222000Z 03010KT 9000 BKN018 26/21 Q1012 NOSIG
18:00
M
27 °C 9 km 1.800 ft 040° 040° 8 kt METAR GVNP 221900Z 04008KT 9000 BKN018 27/20 Q1011 NOSIG
17:00
M
28 °C 9 km 1.800 ft 040° 040° 12 kt METAR GVNP 221800Z 04012KT 9000 BKN018 28/21 Q1011 NOSIG
16:00
M
29 °C 9 km 1.800 ft 040° 040° 11 kt METAR GVNP 221700Z 04011KT 9000 BKN018 29/21 Q1011 NOSIG
15:00
V
30 °C 9 km - 030° 030° 10 kt METAR GVNP 221600Z 03010KT 9000 SCT018 30/21 Q1011 NOSIG
14:00
V
30 °C 10 km+ - 040° 040° 16 kt METAR GVNP 221500Z 04016KT 9999 FEW018 30/21 Q1011 NOSIG
13:00
V
29 °C 8 km - 040° 040° 17 kt METAR GVNP 221400Z 04017KT 8000 FEW018 29/21 Q1012 NOSIG
12:00
M
29 °C 7 km - 040° 040° 13 kt METAR GVNP 221300Z 04013KT 7000 SCT018 29/21 Q1012 NOSIG
11:00
M
29 °C 10 km+ 1.800 ft 040° 040° 16 kt METAR GVNP 221200Z 04016KT 9999 BKN018 29/21 Q1013 NOSIG
10:00
M
28 °C 8 km 2.000 ft 030° 030° 10 kt METAR GVNP 221100Z 03010KT 8000 BKN020 28/21 Q1013 NOSIG
09:00
V
28 °C 8 km - 030° 030° 7 kt METAR GVNP 221000Z 03007KT 8000 SCT020 28/20 Q1012 NOSIG
08:00
V
26 °C 8 km - 020° 020° 5 kt METAR GVNP 220900Z 02005KT 8000 NSC 26/21 Q1012 NOSIG
07:00
V
24 °C 10 km+ - 360° 360° 4 kt METAR GVNP 220800Z 36004KT CAVOK 24/20 Q1012 NOSIG
06:00
V
24 °C 10 km+ - 320° 320° 3 kt METAR GVNP 220700Z 32003KT CAVOK 24/21 Q1011 NOSIG
05:00
V
24 °C 10 km+ - 360° 360° 4 kt METAR GVNP 220600Z 36004KT 9999 FEW030 24/21 Q1011 NOSIG
04:00
V
25 °C 10 km+ - 290° 290° 2 kt METAR GVNP 220500Z 29002KT 9999 FEW030 25/21 Q1011 NOSIG
03:00
M
25 °C 10 km+ 3.000 ft 360° 360° 4 kt METAR GVNP 220400Z 36004KT 9999 BKN030 25/21 Q1011 NOSIG
02:00
M
25 °C 10 km+ 3.000 ft 340° 340° 3 kt METAR GVNP 220300Z 34003KT 9999 BKN030 25/21 Q1012 NOSIG
01:00
M
25 °C 10 km+ 2.000 ft 030° 030° 7 kt METAR GVNP 220200Z 03007KT 9999 BKN020 25/21 Q1012 NOSIG
00:00
V
25 °C 10 km+ - 030° 030° 10 kt METAR GVNP 220100Z 03010KT 9999 FEW020 25/21 Q1012 NOSIG

21 luglio 2024

Tempo Codice Tempo meteorologico Temp. Vista Base nuvolosa Vento METAR/SPECI
23:00
V
25 °C 10 km+ - 020° 020° 7 kt METAR GVNP 220000Z 02007KT 9999 FEW020 25/21 Q1013 NOSIG
22:00
V
25 °C 10 km+ - 020° 020° 13 kt METAR GVNP 212300Z 02013KT 9999 FEW020 25/21 Q1012 NOSIG
21:00
V
26 °C 10 km+ - 020° 020° 12 kt METAR GVNP 212200Z 02012KT 9999 FEW020 26/21 Q1011 NOSIG
20:00
V
26 °C 10 km+ - 020° 020° 14 kt METAR GVNP 212100Z 02014KT 9999 FEW018 26/21 Q1011 NOSIG
19:00
V
27 °C 10 km+ - 020° 020° 9 kt METAR GVNP 212000Z 02009KT 9999 FEW018 27/20 Q1009 NOSIG
18:00
V
27 °C 10 km+ - 160° 160° 5 kt METAR GVNP 211900Z 16005KT 9999 SCT020 27/22 Q1009 NOSIG
17:00
V
28 °C 10 km+ - 150° 150° 5 kt METAR GVNP 211800Z 15005KT 9999 FEW020 28/22 Q1009 NOSIG
16:00
V
29 °C 10 km+ - 230° 230° 7 kt METAR GVNP 211700Z 23007KT 9999 FEW018 29/21 Q1009 NOSIG
15:00
V
31 °C 10 km+ - 330° 330° 12 kt METAR GVNP 211600Z 33012KT 330V040 9999 FEW018 31/20 Q1009 NOSIG
13:00
V
30 °C 10 km+ - 140° 140° 12 kt METAR GVNP 211400Z 14012KT 9999 FEW018 30/18 Q1010 NOSIG
12:00
V
31 °C 10 km+ - 120° 120° 9 kt METAR GVNP 211300Z 12009KT 9999 FEW018 31/20 Q1010 NOSIG
11:00
V
30 °C 10 km+ - 210° 210° 7 kt METAR GVNP 211200Z 21007KT 9999 FEW018 30/22 Q1011 NOSIG
10:00
V
29 °C 10 km+ - 220° 220° 6 kt METAR GVNP 211100Z 22006KT 9999 FEW018 29/22 Q1012 NOSIG
09:00
V
28 °C 10 km+ - 230° 230° 6 kt METAR GVNP 211000Z 23006KT 9999 FEW018 28/22 Q1012 NOSIG
08:00
V
26 °C 10 km+ - 330° 330° 4 kt METAR GVNP 210900Z 33004KT 9999 FEW018 26/21 Q1012 NOSIG
07:00
V
24 °C 10 km+ - 020° 020° 3 kt METAR GVNP 210800Z 02003KT 9999 FEW018 24/21 Q1012 NOSIG
06:00
V
24 °C 10 km+ - 030° 030° 7 kt METAR GVNP 210700Z 03007KT 9999 FEW018 24/22 Q1011 NOSIG
05:00
V
25 °C 10 km+ - 010° 010° 5 kt METAR GVNP 210600Z 01005KT 9999 FEW018 25/22 Q1011 NOSIG
04:00
V
25 °C 10 km+ - 340° 340° 5 kt METAR GVNP 210500Z 34005KT 9999 FEW018 25/22 Q1011 NOSIG
03:00
V
25 °C 10 km+ - 010° 010° 4 kt METAR GVNP 210400Z 01004KT 9999 FEW018 25/21 Q1012 NOSIG
02:00
V
25 °C 10 km+ - 020° 020° 2 kt METAR GVNP 210300Z 02002KT 9999 FEW018 25/22 Q1012 NOSIG
01:00
V
26 °C 10 km+ - 010° 010° 1 kt METAR GVNP 210200Z 01001KT 9999 FEW018 26/22 Q1013 NOSIG
00:00
V
26 °C 10 km+ - 080° 080° 1 kt METAR GVNP 210100Z 08001KT 9999 FEW018 26/23 Q1013 NOSIG

20 luglio 2024

Tempo Codice Tempo meteorologico Temp. Vista Base nuvolosa Vento METAR/SPECI
23:00
V
26 °C 10 km+ - 050° 050° 2 kt METAR GVNP 210000Z 05002KT 9999 FEW018 26/23 Q1014 NOSIG
22:00
V
26 °C 10 km+ - 010° 010° 3 kt METAR GVNP 202300Z 01003KT 9999 FEW020 26/23 Q1014 NOSIG
21:00
V
26 °C 10 km+ - 030° 030° 3 kt METAR GVNP 202200Z 03003KT 9999 FEW020 26/23 Q1013 NOSIG
20:00
V
27 °C 10 km+ - 060° 060° 5 kt METAR GVNP 202100Z 06005KT 9999 FEW022 27/23 Q1013 NOSIG
19:00
V
27 °C 10 km+ - 120° 120° 9 kt METAR GVNP 202000Z 12009KT 9999 FEW022 27/23 Q1012 NOSIG
18:00
V
28 °C 10 km+ - 180° 180° 8 kt METAR GVNP 201900Z 18008KT 9999 FEW022 28/22 Q1012 NOSIG
17:00
M
28 °C 10 km+ 2.200 ft 060° 060° 10 kt METAR GVNP 201800Z 06010KT 9999 BKN022 28/23 Q1012 NOSIG
16:00
V
30 °C 10 km+ - 230° 230° 6 kt METAR GVNP 201700Z 23006KT 9999 FEW023 SCT026 30/22 Q1012 NOSIG
15:00
V
30 °C 10 km+ - 220° 220° 7 kt METAR GVNP 201600Z 22007KT 9999 SCT023 30/22 Q1012 NOSIG
14:00
M
28 °C 10 km+ 2.300 ft 100° 100° 4 kt METAR GVNP 201500Z 10004KT 9999 FEW022 BKN023 28/22 Q1013 NOSIG
13:00
M
28 °C 10 km+ 2.000 ft 110° 110° 7 kt METAR GVNP 201400Z 11007KT 9999 BKN020 28/22 Q1014 NOSIG
12:00
M
29 °C 10 km+ 1.800 ft 080° 080° 9 kt METAR GVNP 201300Z 08009KT 9999 BKN018 29/23 Q1014 NOSIG
11:00
V
29 °C 10 km+ - 100° 100° 11 kt METAR GVNP 201200Z 10011KT 9999 SCT018 29/23 Q1014 NOSIG
10:00
V
28 °C 10 km+ - 060° 060° 7 kt METAR GVNP 201100Z 06007KT 9999 SCT018 SCT1000 28/22 Q1015 NOSIG
09:00
V
27 °C 10 km+ 10.000 ft 060° 060° 7 kt METAR GVNP 201000Z 06007KT 9999 FEW016 BKN100 27/22 Q1015 NOSIG
08:00
V
26 °C 10 km+ 10.000 ft 040° 040° 4 kt METAR GVNP 200900Z 04004KT 9999 FEW016 BKN100 26/22 Q1015 NOSIG
07:00
V
26 °C 10 km+ 10.000 ft 050° 050° 3 kt METAR GVNP 200800Z 05003KT 9999 FEW016 BKN100 26/22 Q1014 NOSIG
06:00
V
25 °C 10 km+ 10.000 ft 040° 040° 5 kt METAR GVNP 200700Z 04005KT 9999 FEW018 BKN100 25/22 Q1014 NOSIG
05:00
V
25 °C 10 km+ 10.000 ft 360° 360° 3 kt METAR GVNP 200600Z 36003KT 9999 FEW018 BKN100 25/22 Q1014 NOSIG
Segnala modifiche